Time;durP1;ratioP1;P1;durP2;ratioP2;P2;SDS_P1;SDS_P2;PMS_P1;PMS_P2;Temp;Humidity;BMP_temperature;BMP_pressure;BME280_temperature;BME280_humidity;BME280_pressure;Samples;Min_cycle;Max_cycle;Signal;HPM_P1;HPM_P2
2022/06/29 00:04:22;;;;;;;22.20;18.50;;;;;;;18.92;72.76;98923.81;432415;1270;108858;-44
2022/06/29 00:14:26;;;;;;;22.90;18.80;;;;;;;19.05;73.13;98926.38;433048;1270;99263;-43
2022/06/29 00:24:30;;;;;;;23.40;19.30;;;;;;;19.13;73.09;98932.37;432995;1270;108884;-42
2022/06/29 00:34:34;;;;;;;21.40;17.90;;;;;;;19.12;73.48;98923.42;432369;1270;97973;-42
2022/06/29 00:44:38;;;;;;;23.50;18.20;;;;;;;19.07;73.26;98910.98;432555;1270;112460;-42
2022/06/29 00:54:45;;;;;;;20.50;17.90;;;;;;;19.16;73.54;98916.59;432451;1269;108820;-42
2022/06/29 01:04:50;;;;;;;23.90;18.60;;;;;;;19.16;73.57;98910.48;432443;1270;99171;-42
2022/06/29 01:14:54;;;;;;;21.30;19.10;;;;;;;18.88;73.30;98883.11;433379;1258;108809;-44
2022/06/29 01:24:58;;;;;;;22.20;19.90;;;;;;;18.81;73.81;98872.08;432439;1270;99279;-46
2022/06/29 01:35:01;;;;;;;24.90;20.00;;;;;;;18.69;73.89;98866.52;432976;1270;112656;-44
2022/06/29 01:45:08;;;;;;;26.90;20.80;;;;;;;18.64;74.02;98865.35;432688;1269;108527;-43
2022/06/29 01:55:11;;;;;;;32.70;24.80;;;;;;;18.52;74.03;98860.73;432242;1269;504546;-43
2022/06/29 02:05:15;;;;;;;33.10;25.40;;;;;;;18.38;74.58;98840.71;432455;1270;109265;-42
2022/06/29 02:15:18;;;;;;;31.30;24.30;;;;;;;18.47;75.08;98831.58;432942;1270;99346;-47
2022/06/29 02:25:22;;;;;;;32.10;23.20;;;;;;;18.43;75.17;98820.92;433003;1270;112423;-44
2022/06/29 02:35:26;;;;;;;32.20;23.30;;;;;;;18.43;75.46;98813.60;432393;1270;109587;-43
2022/06/29 02:45:29;;;;;;;33.00;24.20;;;;;;;18.31;76.09;98804.23;432520;1270;99838;-43
2022/06/29 02:55:34;;;;;;;34.80;23.40;;;;;;;18.39;76.48;98795.41;432496;1270;108615;-42
2022/06/29 03:05:38;;;;;;;34.90;24.10;;;;;;;18.41;76.59;98792.73;432460;1270;99285;-42
2022/06/29 03:15:41;;;;;;;29.10;22.00;;;;;;;18.60;77.05;98792.35;432532;1269;112639;-44
2022/06/29 03:25:45;;;;;;;27.20;22.70;;;;;;;18.82;77.33;98794.05;432407;1270;108718;-42
2022/06/29 03:35:48;;;;;;;27.20;21.70;;;;;;;19.09;77.28;98796.04;433050;1270;98808;-42
2022/06/29 03:45:52;;;;;;;24.70;21.50;;;;;;;19.35;77.19;98796.45;432464;1270;108827;-42
2022/06/29 04:05:59;;;;;;;23.90;21.30;;;;;;;19.74;76.79;98788.90;432529;1270;112617;-43
2022/06/29 04:16:04;;;;;;;25.50;22.70;;;;;;;19.56;76.74;98786.87;432489;1270;107202;-42
2022/06/29 04:26:08;;;;;;;27.40;22.00;;;;;;;19.45;77.23;98791.48;432585;1270;98007;-44
2022/06/29 04:36:11;;;;;;;24.30;19.30;;;;;;;19.50;77.57;98790.13;432536;1270;108822;-42
2022/06/29 04:46:22;;;;;;;22.70;19.00;;;;;;;19.61;77.58;98783.77;432567;1270;99261;-42
2022/06/29 04:56:29;;;;;;;22.80;20.30;;;;;;;19.78;77.44;98781.77;432680;1270;112497;-44
2022/06/29 05:06:32;;;;;;;24.30;20.50;;;;;;;19.86;77.92;98772.55;432486;1270;109040;-41
2022/06/29 05:26:42;;;;;;;26.20;18.90;;;;;;;19.97;77.64;98770.65;433228;1270;108996;-42
2022/06/29 05:36:46;;;;;;;21.30;18.40;;;;;;;20.02;78.15;98765.27;432968;1270;99365;-42
2022/06/29 05:46:49;;;;;;;20.00;17.80;;;;;;;20.38;77.48;98778.55;432629;1270;112652;-41
2022/06/29 05:56:56;;;;;;;24.30;19.60;;;;;;;20.43;77.24;98776.45;432408;1270;108945;-43
2022/06/29 06:06:59;;;;;;;25.00;19.10;;;;;;;20.56;77.03;98780.20;432656;1270;99270;-42
2022/06/29 06:17:02;;;;;;;25.00;20.30;;;;;;;20.64;76.96;98774.65;432599;1270;107054;-44
2022/06/29 06:27:07;;;;;;;23.70;19.40;;;;;;;20.75;76.93;98754.05;432551;1270;98851;-46
2022/06/29 06:37:10;;;;;;;23.30;19.00;;;;;;;21.03;76.87;98755.38;433109;1270;112456;-42
2022/06/29 06:47:14;;;;;;;23.60;20.30;;;;;;;21.54;76.50;98765.67;432421;1271;108975;-42
2022/06/29 06:57:17;;;;;;;26.60;21.70;;;;;;;21.76;75.94;98755.03;432587;1270;99325;-42
2022/06/29 07:17:25;;;;;;;22.60;20.20;;;;;;;22.20;75.06;98755.70;432549;1271;99275;-40
2022/06/29 07:27:29;;;;;;;23.30;20.90;;;;;;;22.85;74.47;98776.83;432583;1271;112332;-41
2022/06/29 07:37:33;;;;;;;24.20;20.30;;;;;;;23.10;73.40;98775.02;432586;1269;109063;-41
2022/06/29 07:47:37;;;;;;;20.10;18.00;;;;;;;23.26;72.43;98764.88;432708;1270;98036;-40
2022/06/29 07:57:40;;;;;;;23.50;20.80;;;;;;;23.45;71.83;98762.76;432700;1271;109816;-42
2022/06/29 08:07:44;;;;;;;22.20;20.00;;;;;;;23.36;71.52;98760.98;432885;1270;99542;-42
2022/06/29 08:27:53;;;;;;;20.80;18.60;;;;;;;24.43;68.67;98742.73;432771;1270;108950;-41
2022/06/29 08:37:57;;;;;;;22.80;18.70;;;;;;;24.51;68.25;98735.73;432532;1270;99282;-46
2022/06/29 08:48:02;;;;;;;19.80;17.80;;;;;;;24.96;67.56;98729.27;432731;1270;108817;-43
2022/06/29 08:58:05;;;;;;;21.60;18.00;;;;;;;25.46;66.65;98720.25;432688;1270;98346;-41
2022/06/29 09:08:09;;;;;;;17.80;16.10;;;;;;;25.34;65.44;98717.50;432780;1270;112529;-42
2022/06/29 09:18:22;;;;;;;19.10;17.00;;;;;;;25.74;64.59;98719.47;432665;1270;108675;-42
2022/06/29 09:28:27;;;;;;;18.40;16.30;;;;;;;25.65;63.82;98719.48;432321;1270;99393;-41
2022/06/29 09:38:31;;;;;;;17.60;15.80;;;;;;;26.32;63.26;98723.06;432747;1269;107743;-42
2022/06/29 09:48:37;;;;;;;17.80;16.10;;;;;;;26.13;61.59;98714.70;432515;1270;99260;-41
2022/06/29 09:58:42;;;;;;;16.80;15.10;;;;;;;26.12;61.59;98712.86;432778;1270;112531;-41
2022/06/29 10:08:47;;;;;;;19.20;16.60;;;;;;;26.98;61.16;98704.86;432614;1270;109376;-42
2022/06/29 10:19:00;;;;;;;22.20;16.70;;;;;;;27.04;60.39;98689.22;432517;1270;99405;-41
2022/06/29 10:29:30;;;;;;;18.90;17.00;;;;;;;27.08;59.02;98680.70;432385;1270;108838;-42
2022/06/29 10:39:50;;;;;;;18.50;15.50;;;;;;;27.39;59.08;98683.32;432536;1270;98880;-42
2022/06/29 10:50:26;;;;;;;18.90;16.90;;;;;;;27.18;57.56;98675.37;432638;1270;112048;-42
2022/06/29 11:00:31;;;;;;;15.90;14.40;;;;;;;27.39;58.51;98675.65;432405;1270;107204;-41
2022/06/29 11:31:05;;;;;;;17.80;15.90;;;;;;;27.31;56.94;98643.67;432475;1270;108958;-41
2022/06/29 11:51:30;;;;;;;17.10;15.20;;;;;;;27.71;55.81;98628.58;432461;1270;108954;-42
2022/06/29 12:01:34;;;;;;;16.40;13.40;;;;;;;27.86;55.27;98612.94;432478;1270;99372;-44
2022/06/29 12:11:37;;;;;;;16.80;14.00;;;;;;;28.24;54.89;98610.15;432572;1270;112143;-42
2022/06/29 12:21:42;;;;;;;14.40;13.00;;;;;;;28.31;54.16;98610.20;432477;1270;108719;-42
2022/06/29 12:31:46;;;;;;;13.70;12.50;;;;;;;28.67;54.28;98604.78;432602;1270;99258;-42
2022/06/29 12:41:50;;;;;;;13.90;12.50;;;;;;;29.07;53.63;98609.23;433140;1270;108976;-42
2022/06/29 12:51:54;;;;;;;15.40;14.00;;;;;;;28.98;53.15;98603.48;432510;1270;99335;-44
2022/06/29 13:01:58;;;;;;;13.70;12.50;;;;;;;28.93;53.25;98595.57;432698;1270;112630;-43
2022/06/29 13:12:02;;;;;;;13.60;12.20;;;;;;;29.27;53.20;98584.79;432356;1270;108917;-42
2022/06/29 13:22:07;;;;;;;15.70;13.70;;;;;;;29.18;52.10;98584.20;432988;1270;99277;-41
2022/06/29 13:32:10;;;;;;;15.80;14.40;;;;;;;28.77;52.27;98581.56;432626;1270;108607;-42
2022/06/29 13:42:14;;;;;;;16.60;14.00;;;;;;;28.44;52.49;98581.33;432605;1270;99295;-46
2022/06/29 13:52:18;;;;;;;14.60;13.20;;;;;;;28.67;52.40;98577.27;432740;1270;612180;-41
2022/06/29 14:02:22;;;;;;;15.20;13.70;;;;;;;29.11;52.14;98576.48;433203;1269;109021;-41
2022/06/29 14:12:26;;;;;;;17.40;14.60;;;;;;;29.17;51.86;98569.80;433097;1270;99263;-41
2022/06/29 14:22:31;;;;;;;15.70;13.90;;;;;;;29.21;51.75;98568.48;432545;1270;109391;-42
2022/06/29 14:32:34;;;;;;;15.20;13.60;;;;;;;29.37;51.82;98559.11;433264;1270;99259;-45
2022/06/29 14:42:39;;;;;;;15.40;13.40;;;;;;;29.36;51.43;98543.22;433159;1270;112250;-41
2022/06/29 14:52:45;;;;;;;15.90;14.00;;;;;;;29.20;51.33;98527.45;432547;1270;109078;-42
2022/06/29 15:02:50;;;;;;;18.10;14.60;;;;;;;29.10;51.59;98505.29;433023;1270;99343;-44
2022/06/29 15:12:53;;;;;;;16.30;14.70;;;;;;;29.13;51.67;98495.72;432741;1270;107751;-45
2022/06/29 15:22:57;;;;;;;15.50;13.10;;;;;;;28.88;51.32;98491.86;432500;1270;99369;-45
2022/06/29 15:33:01;;;;;;;14.30;12.90;;;;;;;28.99;51.63;98484.52;433130;1270;111492;-42
2022/06/29 15:43:24;;;;;;;15.90;14.50;;;;;;;28.93;51.22;98471.30;432462;1270;109021;-45
2022/06/29 16:03:50;;;;;;;15.20;13.80;;;;;;;28.57;51.53;98475.28;432545;1270;108451;-42
2022/06/29 16:13:54;;;;;;;19.40;15.70;;;;;;;28.29;51.84;98498.72;432428;1270;99366;-46
2022/06/29 16:34:01;;;;;;;17.10;14.10;;;;;;;28.07;52.62;98484.33;432476;1270;108865;-42
2022/06/29 16:44:06;;;;;;;16.70;15.10;;;;;;;28.09;53.10;98478.22;432452;1270;99283;-46
2022/06/29 16:54:10;;;;;;;20.40;14.60;;;;;;;28.05;53.30;98476.73;432587;1270;107724;-44
2022/06/29 17:04:13;;;;;;;16.30;14.90;;;;;;;27.78;53.88;98439.13;432477;1270;99765;-42
2022/06/29 17:14:17;;;;;;;17.70;16.10;;;;;;;27.45;54.54;98435.33;433064;1270;111378;-43
2022/06/29 17:24:21;;;;;;;18.20;15.20;;;;;;;27.31;54.99;98462.40;432447;1269;108779;-42
2022/06/29 17:34:25;;;;;;;17.40;15.20;;;;;;;27.22;55.17;98489.20;432492;1270;98426;-42
2022/06/29 17:44:29;;;;;;;19.40;15.60;;;;;;;26.96;55.49;98476.54;432518;1270;109022;-45
2022/06/29 17:54:33;;;;;;;18.10;16.30;;;;;;;26.79;55.97;98462.82;432435;1270;99353;-42
2022/06/29 18:04:38;;;;;;;16.30;14.80;;;;;;;26.57;56.38;98465.86;432435;1269;111737;-42
2022/06/29 18:14:42;;;;;;;14.90;13.50;;;;;;;26.37;56.91;98466.45;432558;1270;108800;-41
2022/06/29 18:24:45;;;;;;;20.80;13.90;;;;;;;26.28;57.41;98468.28;433002;1270;99281;-46
2022/06/29 18:34:50;;;;;;;17.60;15.90;;;;;;;26.11;58.11;98453.48;432519;1270;108722;-44
2022/06/29 18:44:54;;;;;;;17.60;15.80;;;;;;;25.74;58.40;98437.27;433128;1270;99297;-42
2022/06/29 18:54:57;;;;;;;18.90;16.90;;;;;;;25.35;59.07;98413.02;432507;1269;112546;-42
2022/06/29 19:05:01;;;;;;;19.10;17.10;;;;;;;24.91;60.60;98407.23;432733;1270;108608;-42
2022/06/29 19:15:06;;;;;;;87.40;21.30;;;;;;;24.66;61.45;98403.34;432431;1270;99289;-40
2022/06/29 19:35:14;;;;;;;21.00;18.90;;;;;;;24.48;62.40;98455.76;432524;1270;98038;-44
2022/06/29 19:45:17;;;;;;;19.70;17.60;;;;;;;24.36;62.95;98473.06;432279;1270;111607;-42
2022/06/29 19:55:21;;;;;;;20.70;18.60;;;;;;;24.21;63.19;98480.34;432462;1270;108892;-43
2022/06/29 20:15:29;;;;;;;19.20;17.30;;;;;;;23.81;64.60;98470.70;432607;1270;108815;-43
2022/06/29 20:25:32;;;;;;;19.20;17.30;;;;;;;23.64;65.20;98463.61;433140;1269;99395;-42
2022/06/29 20:35:36;;;;;;;20.00;17.40;;;;;;;23.56;65.83;98467.89;432510;1270;112534;-43
2022/06/29 20:45:40;;;;;;;19.40;17.10;;;;;;;23.48;66.06;98488.71;432612;1270;108992;-43
2022/06/29 20:55:47;;;;;;;19.90;17.50;;;;;;;23.37;66.22;98503.77;432544;1270;99321;-44
2022/06/29 21:15:54;;;;;;;19.20;17.10;;;;;;;23.02;67.53;98488.56;432434;1270;98837;-41
2022/06/29 21:25:58;;;;;;;17.50;15.90;;;;;;;22.91;67.72;98485.42;432446;1270;113012;-45
2022/06/29 21:36:02;;;;;;;17.80;16.20;;;;;;;22.80;68.39;98488.43;432367;1270;108785;-42
2022/06/29 21:46:07;;;;;;;17.60;15.80;;;;;;;22.71;68.60;98482.64;432555;1270;98034;-42
2022/06/29 21:56:11;;;;;;;22.30;16.10;;;;;;;22.66;68.89;98467.02;432351;1270;109071;-42
2022/06/29 22:16:19;;;;;;;16.30;14.50;;;;;;;22.54;69.05;98473.15;433075;1270;112439;-42
2022/06/29 22:26:23;;;;;;;16.50;14.70;;;;;;;22.42;69.68;98457.63;432959;1270;108831;-43
2022/06/29 22:36:27;;;;;;;17.80;16.10;;;;;;;22.33;70.26;98451.25;432449;1270;99387;-42
2022/06/29 22:46:31;;;;;;;16.60;14.60;;;;;;;22.28;70.51;98454.41;432421;1270;108998;-43
2022/06/29 22:56:34;;;;;;;16.40;14.80;;;;;;;22.23;70.80;98465.02;432493;1270;99356;-43
2022/06/29 23:06:38;;;;;;;15.30;13.60;;;;;;;22.22;70.97;98462.95;432554;1270;112614;-42
2022/06/29 23:16:42;;;;;;;17.20;15.60;;;;;;;22.18;70.96;98446.05;432351;1270;107489;-42
2022/06/29 23:26:46;;;;;;;16.90;15.20;;;;;;;22.12;71.25;98426.60;432533;1270;98069;-42
2022/06/29 23:36:49;;;;;;;15.70;14.10;;;;;;;22.05;71.47;98419.30;432927;1270;107967;-44
2022/06/29 23:46:54;;;;;;;17.80;15.10;;;;;;;21.92;71.64;98411.30;432383;1270;99817;-42
2022/06/29 23:56:58;;;;;;;17.00;15.30;;;;;;;21.85;71.89;98405.24;432471;1269;111359;-42
